sensor_id;sensor_type;location;lat;lon;timestamp;P1;durP1;ratioP1;P2;durP2;ratioP2
11807;SDS011;5961;42.640;23.380;2023-02-20T00:01:47;14.17;;;7.90;;
11807;SDS011;5961;42.640;23.380;2023-02-20T00:04:14;12.13;;;8.00;;
11807;SDS011;5961;42.640;23.380;2023-02-20T00:06:41;11.03;;;8.10;;
11807;SDS011;5961;42.640;23.380;2023-02-20T00:09:08;10.83;;;7.97;;
11807;SDS011;5961;42.640;23.380;2023-02-20T00:11:36;11.33;;;7.97;;
11807;SDS011;5961;42.640;23.380;2023-02-20T00:14:03;11.07;;;8.47;;
11807;SDS011;5961;42.640;23.380;2023-02-20T00:16:29;9.93;;;7.93;;
11807;SDS011;5961;42.640;23.380;2023-02-20T00:18:56;9.67;;;8.10;;
11807;SDS011;5961;42.640;23.380;2023-02-20T00:21:23;11.70;;;8.40;;
11807;SDS011;5961;42.640;23.380;2023-02-20T00:23:49;11.90;;;8.10;;
11807;SDS011;5961;42.640;23.380;2023-02-20T00:26:16;9.80;;;8.10;;
11807;SDS011;5961;42.640;23.380;2023-02-20T00:28:44;10.97;;;8.03;;
11807;SDS011;5961;42.640;23.380;2023-02-20T00:31:11;13.37;;;8.70;;
11807;SDS011;5961;42.640;23.380;2023-02-20T00:33:40;11.00;;;8.03;;
11807;SDS011;5961;42.640;23.380;2023-02-20T00:36:07;11.67;;;8.20;;
11807;SDS011;5961;42.640;23.380;2023-02-20T00:38:40;11.07;;;8.60;;
11807;SDS011;5961;42.640;23.380;2023-02-20T00:41:07;13.63;;;8.50;;
11807;SDS011;5961;42.640;23.380;2023-02-20T00:43:35;10.70;;;8.67;;
11807;SDS011;5961;42.640;23.380;2023-02-20T00:46:04;12.00;;;8.80;;
11807;SDS011;5961;42.640;23.380;2023-02-20T00:48:31;12.97;;;8.30;;
11807;SDS011;5961;42.640;23.380;2023-02-20T00:50:57;10.00;;;7.83;;
11807;SDS011;5961;42.640;23.380;2023-02-20T00:53:24;10.17;;;7.97;;
11807;SDS011;5961;42.640;23.380;2023-02-20T00:55:51;11.13;;;8.40;;
11807;SDS011;5961;42.640;23.380;2023-02-20T00:58:17;11.33;;;8.33;;
11807;SDS011;5961;42.640;23.380;2023-02-20T01:00:44;11.07;;;8.27;;
11807;SDS011;5961;42.640;23.380;2023-02-20T01:03:12;12.03;;;7.87;;
11807;SDS011;5961;42.640;23.380;2023-02-20T01:05:39;11.83;;;7.87;;
11807;SDS011;5961;42.640;23.380;2023-02-20T01:08:05;9.97;;;7.73;;
11807;SDS011;5961;42.640;23.380;2023-02-20T01:10:32;12.00;;;8.47;;
11807;SDS011;5961;42.640;23.380;2023-02-20T01:12:59;12.57;;;8.70;;
11807;SDS011;5961;42.640;23.380;2023-02-20T01:15:25;10.97;;;7.93;;
11807;SDS011;5961;42.640;23.380;2023-02-20T01:17:52;11.47;;;8.47;;
11807;SDS011;5961;42.640;23.380;2023-02-20T01:20:20;10.20;;;8.50;;
11807;SDS011;5961;42.640;23.380;2023-02-20T01:22:47;12.40;;;8.50;;
11807;SDS011;5961;42.640;23.380;2023-02-20T01:25:14;12.43;;;8.73;;
11807;SDS011;5961;42.640;23.380;2023-02-20T01:27:40;11.80;;;8.70;;
11807;SDS011;5961;42.640;23.380;2023-02-20T01:30:08;12.57;;;8.70;;
11807;SDS011;5961;42.640;23.380;2023-02-20T01:32:35;11.90;;;8.23;;
11807;SDS011;5961;42.640;23.380;2023-02-20T01:35:02;11.70;;;8.97;;
11807;SDS011;5961;42.640;23.380;2023-02-20T01:37:30;14.33;;;10.30;;
11807;SDS011;5961;42.640;23.380;2023-02-20T01:39:56;10.97;;;8.57;;
11807;SDS011;5961;42.640;23.380;2023-02-20T01:42:24;11.60;;;8.80;;
11807;SDS011;5961;42.640;23.380;2023-02-20T01:44:53;12.70;;;9.00;;
11807;SDS011;5961;42.640;23.380;2023-02-20T01:47:21;13.30;;;8.43;;
11807;SDS011;5961;42.640;23.380;2023-02-20T01:49:49;11.37;;;8.70;;
11807;SDS011;5961;42.640;23.380;2023-02-20T01:52:20;12.77;;;9.20;;
11807;SDS011;5961;42.640;23.380;2023-02-20T01:54:53;13.10;;;9.07;;
11807;SDS011;5961;42.640;23.380;2023-02-20T01:57:23;13.33;;;9.67;;
11807;SDS011;5961;42.640;23.380;2023-02-20T01:59:54;15.07;;;9.53;;
11807;SDS011;5961;42.640;23.380;2023-02-20T02:02:26;14.53;;;9.53;;
11807;SDS011;5961;42.640;23.380;2023-02-20T02:04:56;12.23;;;8.77;;
11807;SDS011;5961;42.640;23.380;2023-02-20T02:07:22;12.27;;;9.00;;
11807;SDS011;5961;42.640;23.380;2023-02-20T02:09:50;12.43;;;8.67;;
11807;SDS011;5961;42.640;23.380;2023-02-20T02:12:23;11.47;;;7.83;;
11807;SDS011;5961;42.640;23.380;2023-02-20T02:14:50;11.57;;;8.50;;
11807;SDS011;5961;42.640;23.380;2023-02-20T02:17:21;12.87;;;8.20;;
11807;SDS011;5961;42.640;23.380;2023-02-20T02:23:04;7.13;;;5.30;;
11807;SDS011;5961;42.640;23.380;2023-02-20T02:25:51;5.00;;;4.37;;
11807;SDS011;5961;42.640;23.380;2023-02-20T02:31:31;4.63;;;4.10;;
11807;SDS011;5961;42.640;23.380;2023-02-20T02:37:44;7.10;;;4.33;;
11807;SDS011;5961;42.640;23.380;2023-02-20T02:40:19;5.83;;;4.43;;
11807;SDS011;5961;42.640;23.380;2023-02-20T02:42:56;4.83;;;4.10;;
11807;SDS011;5961;42.640;23.380;2023-02-20T02:45:32;4.43;;;3.80;;
11807;SDS011;5961;42.640;23.380;2023-02-20T02:48:04;4.63;;;3.40;;
11807;SDS011;5961;42.640;23.380;2023-02-20T02:50:36;3.90;;;3.50;;
11807;SDS011;5961;42.640;23.380;2023-02-20T02:53:09;4.13;;;3.30;;
11807;SDS011;5961;42.640;23.380;2023-02-20T02:55:38;4.13;;;2.87;;
11807;SDS011;5961;42.640;23.380;2023-02-20T02:58:05;3.37;;;3.07;;
11807;SDS011;5961;42.640;23.380;2023-02-20T03:00:32;4.73;;;3.03;;
11807;SDS011;5961;42.640;23.380;2023-02-20T03:03:04;3.13;;;2.83;;
11807;SDS011;5961;42.640;23.380;2023-02-20T03:05:37;3.63;;;2.97;;
11807;SDS011;5961;42.640;23.380;2023-02-20T03:08:14;3.93;;;2.53;;
11807;SDS011;5961;42.640;23.380;2023-02-20T03:10:55;2.93;;;2.67;;
11807;SDS011;5961;42.640;23.380;2023-02-20T03:13:25;3.03;;;2.73;;
11807;SDS011;5961;42.640;23.380;2023-02-20T03:16:12;3.03;;;2.77;;
11807;SDS011;5961;42.640;23.380;2023-02-20T03:18:44;2.90;;;2.60;;
11807;SDS011;5961;42.640;23.380;2023-02-20T03:21:13;3.07;;;2.77;;
11807;SDS011;5961;42.640;23.380;2023-02-20T03:23:45;2.80;;;2.50;;
11807;SDS011;5961;42.640;23.380;2023-02-20T03:26:15;2.70;;;2.50;;
11807;SDS011;5961;42.640;23.380;2023-02-20T03:28:47;3.20;;;2.50;;
11807;SDS011;5961;42.640;23.380;2023-02-20T03:31:20;2.80;;;2.60;;
11807;SDS011;5961;42.640;23.380;2023-02-20T03:33:54;3.10;;;2.70;;
11807;SDS011;5961;42.640;23.380;2023-02-20T03:36:44;4.53;;;2.40;;
11807;SDS011;5961;42.640;23.380;2023-02-20T03:39:33;3.47;;;2.50;;
11807;SDS011;5961;42.640;23.380;2023-02-20T03:42:21;2.90;;;2.60;;
11807;SDS011;5961;42.640;23.380;2023-02-20T03:45:07;2.90;;;2.47;;
11807;SDS011;5961;42.640;23.380;2023-02-20T03:47:36;3.10;;;2.80;;
11807;SDS011;5961;42.640;23.380;2023-02-20T03:50:09;3.30;;;2.60;;
11807;SDS011;5961;42.640;23.380;2023-02-20T03:52:38;2.87;;;2.60;;
11807;SDS011;5961;42.640;23.380;2023-02-20T03:55:07;2.83;;;2.63;;
11807;SDS011;5961;42.640;23.380;2023-02-20T03:57:35;2.93;;;2.63;;
11807;SDS011;5961;42.640;23.380;2023-02-20T04:00:07;2.77;;;2.57;;
11807;SDS011;5961;42.640;23.380;2023-02-20T04:02:39;2.83;;;2.57;;
11807;SDS011;5961;42.640;23.380;2023-02-20T04:05:12;2.80;;;2.60;;
11807;SDS011;5961;42.640;23.380;2023-02-20T04:07:44;3.00;;;2.47;;
11807;SDS011;5961;42.640;23.380;2023-02-20T04:10:19;2.37;;;2.17;;
11807;SDS011;5961;42.640;23.380;2023-02-20T04:12:50;2.97;;;2.30;;
11807;SDS011;5961;42.640;23.380;2023-02-20T04:15:18;2.40;;;2.20;;
11807;SDS011;5961;42.640;23.380;2023-02-20T04:17:48;2.17;;;1.97;;
11807;SDS011;5961;42.640;23.380;2023-02-20T04:20:17;2.47;;;2.20;;
11807;SDS011;5961;42.640;23.380;2023-02-20T04:22:46;2.67;;;2.10;;
11807;SDS011;5961;42.640;23.380;2023-02-20T04:25:18;2.40;;;2.20;;
11807;SDS011;5961;42.640;23.380;2023-02-20T04:27:55;2.93;;;2.20;;
11807;SDS011;5961;42.640;23.380;2023-02-20T04:30:21;2.60;;;2.40;;
11807;SDS011;5961;42.640;23.380;2023-02-20T04:32:48;4.33;;;2.60;;
11807;SDS011;5961;42.640;23.380;2023-02-20T04:35:15;3.27;;;2.57;;
11807;SDS011;5961;42.640;23.380;2023-02-20T04:37:43;3.70;;;2.60;;
11807;SDS011;5961;42.640;23.380;2023-02-20T04:40:10;2.60;;;2.40;;
11807;SDS011;5961;42.640;23.380;2023-02-20T04:42:39;3.33;;;2.70;;
11807;SDS011;5961;42.640;23.380;2023-02-20T04:45:06;5.23;;;2.60;;
11807;SDS011;5961;42.640;23.380;2023-02-20T04:47:33;2.43;;;2.13;;
11807;SDS011;5961;42.640;23.380;2023-02-20T04:50:00;3.50;;;2.37;;
11807;SDS011;5961;42.640;23.380;2023-02-20T04:52:26;3.17;;;2.50;;
11807;SDS011;5961;42.640;23.380;2023-02-20T04:54:53;2.27;;;2.07;;
11807;SDS011;5961;42.640;23.380;2023-02-20T04:57:20;2.57;;;2.27;;
11807;SDS011;5961;42.640;23.380;2023-02-20T04:59:48;1.90;;;1.80;;
11807;SDS011;5961;42.640;23.380;2023-02-20T05:02:16;2.30;;;2.10;;
11807;SDS011;5961;42.640;23.380;2023-02-20T05:04:42;2.80;;;2.00;;
11807;SDS011;5961;42.640;23.380;2023-02-20T05:07:09;2.57;;;2.37;;
11807;SDS011;5961;42.640;23.380;2023-02-20T05:09:36;3.27;;;2.00;;
11807;SDS011;5961;42.640;23.380;2023-02-20T05:12:03;2.37;;;2.17;;
11807;SDS011;5961;42.640;23.380;2023-02-20T05:14:29;2.47;;;2.17;;
11807;SDS011;5961;42.640;23.380;2023-02-20T05:16:57;4.37;;;2.37;;
11807;SDS011;5961;42.640;23.380;2023-02-20T05:19:24;2.23;;;2.03;;
11807;SDS011;5961;42.640;23.380;2023-02-20T05:21:51;2.70;;;2.00;;
11807;SDS011;5961;42.640;23.380;2023-02-20T05:24:41;6.03;;;1.83;;
11807;SDS011;5961;42.640;23.380;2023-02-20T05:27:08;2.20;;;2.00;;
11807;SDS011;5961;42.640;23.380;2023-02-20T05:29:35;2.10;;;2.00;;
11807;SDS011;5961;42.640;23.380;2023-02-20T05:32:03;2.53;;;2.33;;
11807;SDS011;5961;42.640;23.380;2023-02-20T05:34:30;2.60;;;2.40;;
11807;SDS011;5961;42.640;23.380;2023-02-20T05:36:57;2.23;;;2.03;;
11807;SDS011;5961;42.640;23.380;2023-02-20T05:39:23;3.07;;;2.77;;
11807;SDS011;5961;42.640;23.380;2023-02-20T05:41:50;3.10;;;2.80;;
11807;SDS011;5961;42.640;23.380;2023-02-20T05:44:17;3.57;;;3.27;;
11807;SDS011;5961;42.640;23.380;2023-02-20T05:46:43;3.60;;;3.30;;
11807;SDS011;5961;42.640;23.380;2023-02-20T05:49:12;4.80;;;3.60;;
11807;SDS011;5961;42.640;23.380;2023-02-20T05:51:38;6.43;;;3.63;;
11807;SDS011;5961;42.640;23.380;2023-02-20T05:54:05;4.73;;;3.60;;
11807;SDS011;5961;42.640;23.380;2023-02-20T05:56:32;4.67;;;3.97;;
11807;SDS011;5961;42.640;23.380;2023-02-20T05:58:59;5.73;;;3.90;;
11807;SDS011;5961;42.640;23.380;2023-02-20T06:01:27;6.20;;;4.10;;
11807;SDS011;5961;42.640;23.380;2023-02-20T06:03:55;5.70;;;4.03;;
11807;SDS011;5961;42.640;23.380;2023-02-20T06:06:23;7.30;;;4.20;;
11807;SDS011;5961;42.640;23.380;2023-02-20T06:08:49;4.67;;;4.03;;
11807;SDS011;5961;42.640;23.380;2023-02-20T06:11:16;3.63;;;3.10;;
11807;SDS011;5961;42.640;23.380;2023-02-20T06:13:44;2.77;;;2.57;;
11807;SDS011;5961;42.640;23.380;2023-02-20T06:16:11;4.07;;;3.67;;
11807;SDS011;5961;42.640;23.380;2023-02-20T06:18:38;2.80;;;2.60;;
11807;SDS011;5961;42.640;23.380;2023-02-20T06:21:06;3.37;;;3.07;;
11807;SDS011;5961;42.640;23.380;2023-02-20T06:23:36;3.00;;;2.70;;
11807;SDS011;5961;42.640;23.380;2023-02-20T06:26:03;3.33;;;2.97;;
11807;SDS011;5961;42.640;23.380;2023-02-20T06:28:30;3.30;;;3.00;;
11807;SDS011;5961;42.640;23.380;2023-02-20T06:30:57;2.90;;;2.70;;
11807;SDS011;5961;42.640;23.380;2023-02-20T06:33:24;3.17;;;2.67;;
11807;SDS011;5961;42.640;23.380;2023-02-20T06:35:50;4.60;;;3.10;;
11807;SDS011;5961;42.640;23.380;2023-02-20T06:38:17;2.97;;;2.70;;
11807;SDS011;5961;42.640;23.380;2023-02-20T06:40:45;4.60;;;2.90;;
11807;SDS011;5961;42.640;23.380;2023-02-20T06:43:12;3.33;;;2.97;;
11807;SDS011;5961;42.640;23.380;2023-02-20T06:45:39;3.10;;;2.80;;
11807;SDS011;5961;42.640;23.380;2023-02-20T06:48:05;4.77;;;2.93;;
11807;SDS011;5961;42.640;23.380;2023-02-20T06:50:32;3.57;;;3.27;;
11807;SDS011;5961;42.640;23.380;2023-02-20T06:52:59;3.00;;;2.70;;
11807;SDS011;5961;42.640;23.380;2023-02-20T06:55:26;3.87;;;2.90;;
11807;SDS011;5961;42.640;23.380;2023-02-20T06:57:54;3.40;;;3.10;;
11807;SDS011;5961;42.640;23.380;2023-02-20T07:00:21;4.37;;;3.23;;
11807;SDS011;5961;42.640;23.380;2023-02-20T07:02:47;4.60;;;3.57;;
11807;SDS011;5961;42.640;23.380;2023-02-20T07:05:14;3.67;;;3.10;;
11807;SDS011;5961;42.640;23.380;2023-02-20T07:07:41;4.93;;;3.00;;
11807;SDS011;5961;42.640;23.380;2023-02-20T07:10:08;3.53;;;3.23;;
11807;SDS011;5961;42.640;23.380;2023-02-20T07:12:34;3.37;;;3.07;;
11807;SDS011;5961;42.640;23.380;2023-02-20T07:15:04;3.30;;;3.00;;
11807;SDS011;5961;42.640;23.380;2023-02-20T07:17:31;3.30;;;2.60;;
11807;SDS011;5961;42.640;23.380;2023-02-20T07:19:58;2.63;;;2.43;;
11807;SDS011;5961;42.640;23.380;2023-02-20T07:22:25;3.37;;;3.03;;
11807;SDS011;5961;42.640;23.380;2023-02-20T07:24:52;3.20;;;2.90;;
11807;SDS011;5961;42.640;23.380;2023-02-20T07:27:19;4.97;;;2.70;;
11807;SDS011;5961;42.640;23.380;2023-02-20T07:29:47;3.00;;;2.17;;
11807;SDS011;5961;42.640;23.380;2023-02-20T07:32:16;2.50;;;2.10;;
11807;SDS011;5961;42.640;23.380;2023-02-20T07:34:44;5.70;;;2.33;;
11807;SDS011;5961;42.640;23.380;2023-02-20T07:37:12;3.00;;;2.20;;
11807;SDS011;5961;42.640;23.380;2023-02-20T07:39:39;2.37;;;1.80;;
11807;SDS011;5961;42.640;23.380;2023-02-20T07:42:05;2.43;;;2.10;;
11807;SDS011;5961;42.640;23.380;2023-02-20T07:44:32;8.00;;;2.10;;
11807;SDS011;5961;42.640;23.380;2023-02-20T07:47:00;2.20;;;1.87;;
11807;SDS011;5961;42.640;23.380;2023-02-20T07:49:28;2.40;;;2.07;;
11807;SDS011;5961;42.640;23.380;2023-02-20T07:51:54;2.63;;;2.10;;
11807;SDS011;5961;42.640;23.380;2023-02-20T07:54:21;2.30;;;1.73;;
11807;SDS011;5961;42.640;23.380;2023-02-20T07:56:48;2.23;;;1.90;;
11807;SDS011;5961;42.640;23.380;2023-02-20T07:59:15;1.67;;;1.57;;
11807;SDS011;5961;42.640;23.380;2023-02-20T08:01:41;2.00;;;1.80;;
11807;SDS011;5961;42.640;23.380;2023-02-20T08:04:09;1.80;;;1.70;;
11807;SDS011;5961;42.640;23.380;2023-02-20T08:06:37;5.53;;;1.70;;
11807;SDS011;5961;42.640;23.380;2023-02-20T08:09:04;2.53;;;1.80;;
11807;SDS011;5961;42.640;23.380;2023-02-20T08:11:32;1.70;;;1.60;;
11807;SDS011;5961;42.640;23.380;2023-02-20T08:13:59;1.57;;;1.47;;
11807;SDS011;5961;42.640;23.380;2023-02-20T08:16:27;1.60;;;1.40;;
11807;SDS011;5961;42.640;23.380;2023-02-20T08:18:53;1.37;;;1.27;;
11807;SDS011;5961;42.640;23.380;2023-02-20T08:21:20;7.00;;;1.90;;
11807;SDS011;5961;42.640;23.380;2023-02-20T08:23:48;1.50;;;1.40;;
11807;SDS011;5961;42.640;23.380;2023-02-20T08:26:16;2.80;;;1.60;;
11807;SDS011;5961;42.640;23.380;2023-02-20T08:28:43;4.40;;;1.60;;
11807;SDS011;5961;42.640;23.380;2023-02-20T08:31:11;2.50;;;1.10;;
11807;SDS011;5961;42.640;23.380;2023-02-20T08:33:38;2.67;;;1.60;;
11807;SDS011;5961;42.640;23.380;2023-02-20T08:36:05;1.47;;;1.37;;
11807;SDS011;5961;42.640;23.380;2023-02-20T08:38:33;1.87;;;1.30;;
11807;SDS011;5961;42.640;23.380;2023-02-20T08:41:03;4.13;;;1.80;;
11807;SDS011;5961;42.640;23.380;2023-02-20T08:43:31;2.63;;;1.40;;
11807;SDS011;5961;42.640;23.380;2023-02-20T08:45:59;3.93;;;1.30;;
11807;SDS011;5961;42.640;23.380;2023-02-20T08:48:26;3.73;;;1.30;;
11807;SDS011;5961;42.640;23.380;2023-02-20T08:50:53;3.50;;;1.27;;
11807;SDS011;5961;42.640;23.380;2023-02-20T08:53:20;3.90;;;1.57;;
11807;SDS011;5961;42.640;23.380;2023-02-20T08:55:47;2.40;;;1.37;;
11807;SDS011;5961;42.640;23.380;2023-02-20T08:58:15;1.40;;;1.30;;
11807;SDS011;5961;42.640;23.380;2023-02-20T09:00:44;3.87;;;1.30;;
11807;SDS011;5961;42.640;23.380;2023-02-20T09:03:11;1.30;;;1.20;;
11807;SDS011;5961;42.640;23.380;2023-02-20T09:05:37;1.50;;;1.40;;
11807;SDS011;5961;42.640;23.380;2023-02-20T09:08:04;4.87;;;1.80;;
11807;SDS011;5961;42.640;23.380;2023-02-20T09:10:31;4.10;;;1.40;;
11807;SDS011;5961;42.640;23.380;2023-02-20T09:12:58;3.17;;;1.40;;
11807;SDS011;5961;42.640;23.380;2023-02-20T09:15:26;1.40;;;1.30;;
11807;SDS011;5961;42.640;23.380;2023-02-20T09:17:53;3.23;;;1.47;;
11807;SDS011;5961;42.640;23.380;2023-02-20T09:20:20;1.53;;;1.40;;
11807;SDS011;5961;42.640;23.380;2023-02-20T09:22:48;1.47;;;1.37;;
11807;SDS011;5961;42.640;23.380;2023-02-20T09:25:16;2.07;;;1.20;;
11807;SDS011;5961;42.640;23.380;2023-02-20T09:27:43;1.93;;;1.30;;
11807;SDS011;5961;42.640;23.380;2023-02-20T09:30:13;2.23;;;1.20;;
11807;SDS011;5961;42.640;23.380;2023-02-20T09:32:45;1.50;;;1.40;;
11807;SDS011;5961;42.640;23.380;2023-02-20T09:35:14;2.30;;;1.30;;
11807;SDS011;5961;42.640;23.380;2023-02-20T09:37:43;1.13;;;1.13;;
11807;SDS011;5961;42.640;23.380;2023-02-20T09:40:11;3.17;;;1.60;;
11807;SDS011;5961;42.640;23.380;2023-02-20T09:42:42;6.27;;;1.33;;
11807;SDS011;5961;42.640;23.380;2023-02-20T09:45:17;2.50;;;1.30;;
11807;SDS011;5961;42.640;23.380;2023-02-20T09:47:50;2.90;;;1.40;;
11807;SDS011;5961;42.640;23.380;2023-02-20T09:50:30;4.83;;;1.57;;
11807;SDS011;5961;42.640;23.380;2023-02-20T09:53:04;2.50;;;1.33;;
11807;SDS011;5961;42.640;23.380;2023-02-20T09:55:37;1.50;;;1.40;;
11807;SDS011;5961;42.640;23.380;2023-02-20T09:58:06;2.57;;;1.30;;
11807;SDS011;5961;42.640;23.380;2023-02-20T10:00:43;3.33;;;1.20;;
11807;SDS011;5961;42.640;23.380;2023-02-20T10:03:15;2.73;;;1.43;;
11807;SDS011;5961;42.640;23.380;2023-02-20T10:05:48;1.40;;;1.30;;
11807;SDS011;5961;42.640;23.380;2023-02-20T10:08:17;2.63;;;1.47;;
11807;SDS011;5961;42.640;23.380;2023-02-20T10:10:47;2.30;;;1.43;;
11807;SDS011;5961;42.640;23.380;2023-02-20T10:13:29;1.60;;;1.30;;
11807;SDS011;5961;42.640;23.380;2023-02-20T10:16:06;4.40;;;1.60;;
11807;SDS011;5961;42.640;23.380;2023-02-20T10:18:44;1.50;;;1.40;;
11807;SDS011;5961;42.640;23.380;2023-02-20T10:21:25;1.77;;;1.40;;
11807;SDS011;5961;42.640;23.380;2023-02-20T10:24:05;2.00;;;1.90;;
11807;SDS011;5961;42.640;23.380;2023-02-20T10:26:46;1.60;;;1.50;;
11807;SDS011;5961;42.640;23.380;2023-02-20T10:29:19;2.63;;;1.53;;
11807;SDS011;5961;42.640;23.380;2023-02-20T10:31:50;2.10;;;1.47;;
11807;SDS011;5961;42.640;23.380;2023-02-20T10:34:27;1.93;;;1.40;;
11807;SDS011;5961;42.640;23.380;2023-02-20T10:37:00;2.70;;;1.60;;
11807;SDS011;5961;42.640;23.380;2023-02-20T10:39:31;2.47;;;1.40;;
11807;SDS011;5961;42.640;23.380;2023-02-20T10:42:01;1.40;;;1.30;;
11807;SDS011;5961;42.640;23.380;2023-02-20T10:44:35;1.40;;;1.30;;
11807;SDS011;5961;42.640;23.380;2023-02-20T10:47:09;2.80;;;1.20;;
11807;SDS011;5961;42.640;23.380;2023-02-20T10:49:42;2.73;;;1.20;;
11807;SDS011;5961;42.640;23.380;2023-02-20T10:52:16;3.67;;;1.70;;
11807;SDS011;5961;42.640;23.380;2023-02-20T10:54:49;3.47;;;1.50;;
11807;SDS011;5961;42.640;23.380;2023-02-20T10:57:21;2.00;;;1.40;;
11807;SDS011;5961;42.640;23.380;2023-02-20T10:59:53;1.70;;;1.60;;
11807;SDS011;5961;42.640;23.380;2023-02-20T11:02:27;3.77;;;1.40;;
11807;SDS011;5961;42.640;23.380;2023-02-20T11:05:00;1.93;;;1.70;;
11807;SDS011;5961;42.640;23.380;2023-02-20T11:07:32;1.63;;;1.53;;
11807;SDS011;5961;42.640;23.380;2023-02-20T11:09:59;1.40;;;1.30;;
11807;SDS011;5961;42.640;23.380;2023-02-20T11:12:26;2.97;;;1.30;;
11807;SDS011;5961;42.640;23.380;2023-02-20T11:14:57;1.70;;;1.60;;
11807;SDS011;5961;42.640;23.380;2023-02-20T11:17:26;1.50;;;1.40;;
11807;SDS011;5961;42.640;23.380;2023-02-20T11:19:55;1.80;;;1.70;;
11807;SDS011;5961;42.640;23.380;2023-02-20T11:25:15;1.60;;;1.50;;
11807;SDS011;5961;42.640;23.380;2023-02-20T11:27:44;2.57;;;1.63;;
11807;SDS011;5961;42.640;23.380;2023-02-20T11:30:21;2.37;;;1.57;;
11807;SDS011;5961;42.640;23.380;2023-02-20T11:32:58;3.07;;;1.50;;
11807;SDS011;5961;42.640;23.380;2023-02-20T11:35:30;8.13;;;1.67;;
11807;SDS011;5961;42.640;23.380;2023-02-20T11:38:22;2.47;;;1.83;;
11807;SDS011;5961;42.640;23.380;2023-02-20T11:41:05;1.80;;;1.70;;
11807;SDS011;5961;42.640;23.380;2023-02-20T11:43:38;1.40;;;1.30;;
11807;SDS011;5961;42.640;23.380;2023-02-20T11:46:09;3.37;;;1.90;;
11807;SDS011;5961;42.640;23.380;2023-02-20T11:48:39;4.53;;;1.57;;
11807;SDS011;5961;42.640;23.380;2023-02-20T11:51:31;3.77;;;1.50;;
11807;SDS011;5961;42.640;23.380;2023-02-20T11:54:08;1.50;;;1.40;;
11807;SDS011;5961;42.640;23.380;2023-02-20T11:56:46;3.97;;;2.00;;
11807;SDS011;5961;42.640;23.380;2023-02-20T11:59:33;1.43;;;1.33;;
11807;SDS011;5961;42.640;23.380;2023-02-20T12:05:04;1.73;;;1.50;;
11807;SDS011;5961;42.640;23.380;2023-02-20T12:07:34;3.50;;;1.83;;
11807;SDS011;5961;42.640;23.380;2023-02-20T12:10:08;1.40;;;1.30;;
11807;SDS011;5961;42.640;23.380;2023-02-20T12:12:40;3.77;;;1.57;;
11807;SDS011;5961;42.640;23.380;2023-02-20T12:15:11;2.43;;;1.33;;
11807;SDS011;5961;42.640;23.380;2023-02-20T12:17:41;1.33;;;1.30;;
11807;SDS011;5961;42.640;23.380;2023-02-20T12:20:17;1.20;;;1.20;;
11807;SDS011;5961;42.640;23.380;2023-02-20T12:22:47;1.90;;;1.50;;
11807;SDS011;5961;42.640;23.380;2023-02-20T12:25:26;1.30;;;1.23;;
11807;SDS011;5961;42.640;23.380;2023-02-20T12:28:01;1.30;;;1.20;;
11807;SDS011;5961;42.640;23.380;2023-02-20T12:30:42;1.20;;;1.10;;
11807;SDS011;5961;42.640;23.380;2023-02-20T12:36:26;1.30;;;1.30;;
11807;SDS011;5961;42.640;23.380;2023-02-20T12:38:58;1.30;;;1.23;;
11807;SDS011;5961;42.640;23.380;2023-02-20T12:41:35;1.60;;;1.50;;
11807;SDS011;5961;42.640;23.380;2023-02-20T12:44:22;1.20;;;1.20;;
11807;SDS011;5961;42.640;23.380;2023-02-20T12:47:01;1.30;;;1.20;;
11807;SDS011;5961;42.640;23.380;2023-02-20T12:49:44;1.27;;;1.20;;
11807;SDS011;5961;42.640;23.380;2023-02-20T12:52:30;1.30;;;1.20;;
11807;SDS011;5961;42.640;23.380;2023-02-20T12:55:07;1.07;;;1.07;;
11807;SDS011;5961;42.640;23.380;2023-02-20T12:57:49;4.07;;;1.47;;
11807;SDS011;5961;42.640;23.380;2023-02-20T13:00:29;1.30;;;1.20;;
11807;SDS011;5961;42.640;23.380;2023-02-20T13:02:59;3.90;;;1.40;;
11807;SDS011;5961;42.640;23.380;2023-02-20T13:05:34;1.30;;;1.20;;
11807;SDS011;5961;42.640;23.380;2023-02-20T13:08:06;1.30;;;1.20;;
11807;SDS011;5961;42.640;23.380;2023-02-20T13:10:40;1.70;;;1.47;;
11807;SDS011;5961;42.640;23.380;2023-02-20T13:13:14;1.40;;;1.30;;
11807;SDS011;5961;42.640;23.380;2023-02-20T13:15:44;1.17;;;1.17;;
11807;SDS011;5961;42.640;23.380;2023-02-20T13:18:18;1.30;;;1.20;;
11807;SDS011;5961;42.640;23.380;2023-02-20T13:20:52;1.37;;;1.27;;
11807;SDS011;5961;42.640;23.380;2023-02-20T13:23:27;1.57;;;1.47;;
11807;SDS011;5961;42.640;23.380;2023-02-20T13:25:56;1.37;;;1.27;;
11807;SDS011;5961;42.640;23.380;2023-02-20T13:28:35;1.90;;;1.20;;
11807;SDS011;5961;42.640;23.380;2023-02-20T13:31:19;2.17;;;1.40;;
11807;SDS011;5961;42.640;23.380;2023-02-20T13:33:48;1.30;;;1.20;;
11807;SDS011;5961;42.640;23.380;2023-02-20T13:36:17;1.23;;;1.23;;
11807;SDS011;5961;42.640;23.380;2023-02-20T13:42:24;1.20;;;1.20;;
11807;SDS011;5961;42.640;23.380;2023-02-20T13:44:54;1.60;;;1.50;;
11807;SDS011;5961;42.640;23.380;2023-02-20T13:47:27;1.20;;;1.20;;
11807;SDS011;5961;42.640;23.380;2023-02-20T13:49:57;1.20;;;1.20;;
11807;SDS011;5961;42.640;23.380;2023-02-20T13:52:31;1.73;;;1.33;;
11807;SDS011;5961;42.640;23.380;2023-02-20T13:55:11;1.20;;;1.20;;
11807;SDS011;5961;42.640;23.380;2023-02-20T13:57:42;1.43;;;1.33;;
11807;SDS011;5961;42.640;23.380;2023-02-20T14:00:17;1.40;;;1.30;;
11807;SDS011;5961;42.640;23.380;2023-02-20T14:02:52;1.20;;;1.20;;
11807;SDS011;5961;42.640;23.380;2023-02-20T14:05:20;1.60;;;1.50;;
11807;SDS011;5961;42.640;23.380;2023-02-20T14:07:48;1.57;;;1.47;;
11807;SDS011;5961;42.640;23.380;2023-02-20T14:10:16;2.47;;;1.37;;
11807;SDS011;5961;42.640;23.380;2023-02-20T14:12:51;2.40;;;1.83;;
11807;SDS011;5961;42.640;23.380;2023-02-20T14:15:21;1.60;;;1.50;;
11807;SDS011;5961;42.640;23.380;2023-02-20T14:17:48;1.70;;;1.60;;
11807;SDS011;5961;42.640;23.380;2023-02-20T14:20:18;1.80;;;1.60;;
11807;SDS011;5961;42.640;23.380;2023-02-20T14:22:48;1.50;;;1.40;;
11807;SDS011;5961;42.640;23.380;2023-02-20T14:25:30;1.60;;;1.50;;
11807;SDS011;5961;42.640;23.380;2023-02-20T14:28:05;2.30;;;1.30;;
11807;SDS011;5961;42.640;23.380;2023-02-20T14:30:34;1.60;;;1.50;;
11807;SDS011;5961;42.640;23.380;2023-02-20T14:33:01;1.53;;;1.40;;
11807;SDS011;5961;42.640;23.380;2023-02-20T14:38:44;1.43;;;1.33;;
11807;SDS011;5961;42.640;23.380;2023-02-20T14:41:28;1.20;;;1.20;;
11807;SDS011;5961;42.640;23.380;2023-02-20T14:43:57;1.70;;;1.30;;
11807;SDS011;5961;42.640;23.380;2023-02-20T14:46:27;1.40;;;1.40;;
11807;SDS011;5961;42.640;23.380;2023-02-20T14:49:02;1.50;;;1.40;;
11807;SDS011;5961;42.640;23.380;2023-02-20T14:51:33;1.40;;;1.30;;
11807;SDS011;5961;42.640;23.380;2023-02-20T14:54:01;1.57;;;1.40;;
11807;SDS011;5961;42.640;23.380;2023-02-20T14:56:40;1.90;;;1.20;;
11807;SDS011;5961;42.640;23.380;2023-02-20T14:59:22;1.70;;;1.60;;
11807;SDS011;5961;42.640;23.380;2023-02-20T15:01:51;5.07;;;1.97;;
11807;SDS011;5961;42.640;23.380;2023-02-20T15:04:21;1.50;;;1.40;;
11807;SDS011;5961;42.640;23.380;2023-02-20T15:06:48;2.00;;;1.60;;
11807;SDS011;5961;42.640;23.380;2023-02-20T15:09:17;3.03;;;1.70;;
11807;SDS011;5961;42.640;23.380;2023-02-20T15:11:46;1.60;;;1.50;;
11807;SDS011;5961;42.640;23.380;2023-02-20T15:14:19;2.33;;;1.70;;
11807;SDS011;5961;42.640;23.380;2023-02-20T15:16:48;3.43;;;1.40;;
11807;SDS011;5961;42.640;23.380;2023-02-20T15:19:35;1.50;;;1.40;;
11807;SDS011;5961;42.640;23.380;2023-02-20T15:22:04;1.40;;;1.30;;
11807;SDS011;5961;42.640;23.380;2023-02-20T15:24:35;2.70;;;1.60;;
11807;SDS011;5961;42.640;23.380;2023-02-20T15:27:13;2.90;;;1.50;;
11807;SDS011;5961;42.640;23.380;2023-02-20T15:29:42;1.70;;;1.60;;
11807;SDS011;5961;42.640;23.380;2023-02-20T15:32:16;2.03;;;1.50;;